ěÝzenÝ letovÚho provozu ╚eskÚ republiky
Letiste: LKKV Aktualizace: 27.10.2020 00:00:25  UTC
 METAR LKKV 27.10. 00:00 ...
METAR LKKV 270000Z VRB02KT 9999 BKN013 06/05 Q1008 RMK REG QNH 1006=
 TAF LKKV 26.10. 23:00 ...
TAF LKKV 262300Z 2700/2806 23006KT 9999 BKN016      TEMPO 2700/2709 4000 BR BKN011      PROB30 TEMPO 2700/2708 2500 -RA BR BKN008      BECMG 2714/2716 CAVOK      BECMG 2718/2720 4000 BR NSC      TEMPO 2720/2806 2000 MIFG SCT002=